Warminster, Pennsylvania
Current Conditions -  °F | °C
As of 8:54 AM on Wednesday 26 Nov 2014 (Local Time) from KPNE Reporting Station
Moderate Rain Moderate Rain  
Wind Chill: 32°   Ceiling: 900
Heat Index: 40°   Visibility: 2mi
Dew Point: 35°   Wind: 14mph
Humidity: 83%   Direction: 70°ENE
Pressure: 30.11"   Gusts: NA
Location:  40.18°N, 75.07°W
Report Text: KPNE 261354Z 07012KT 2SM RA BKN009 OVC014 04/02 A3011 RMK AO2 SLP198 P0012 T00440017
Loading
Personal Weather Stations






























Interactive Weather Map New forecast layout! Learn more

10-Day Weather Forecast

Advertisements
Track Severe Weather on mobile